Time;durP1;ratioP1;P1;durP2;ratioP2;P2;SDS_P1;SDS_P2;PMS_P1;PMS_P2;Temp;Humidity;BMP_temperature;BMP_pressure;BME280_temperature;BME280_humidity;BME280_pressure;Samples;Min_cycle;Max_cycle;Signal;HPM_P1;HPM_P2
2022/02/18 00:00:45;;;;;;;2.33;1.63;;;9.60;98.00;;;;;;5044314;28;20817;-67
2022/02/18 00:03:14;;;;;;;1.20;1.03;;;9.60;98.00;;;;;;5036699;28;20925;-67
2022/02/18 00:05:44;;;;;;;1.30;1.10;;;9.60;98.00;;;;;;5035580;28;20463;-67
2022/02/18 00:08:11;;;;;;;1.20;1.00;;;9.60;98.00;;;;;;5039682;28;20510;-67
2022/02/18 00:10:40;;;;;;;1.30;1.17;;;9.60;98.00;;;;;;5034727;28;20498;-67
2022/02/18 00:13:08;;;;;;;1.20;1.00;;;9.60;98.00;;;;;;5041902;28;21048;-67
2022/02/18 00:15:35;;;;;;;2.03;1.20;;;9.60;98.00;;;;;;5048209;28;20467;-67
2022/02/18 00:18:03;;;;;;;1.20;1.00;;;9.50;98.00;;;;;;5042578;28;20494;-67
2022/02/18 00:20:31;;;;;;;1.20;1.10;;;9.50;98.00;;;;;;5034647;28;20521;-67
2022/02/18 00:23:01;;;;;;;1.87;1.20;;;9.50;98.00;;;;;;5029980;28;20471;-67
2022/02/18 00:25:28;;;;;;;2.50;1.20;;;9.40;98.00;;;;;;5051607;28;20546;-67
2022/02/18 00:27:57;;;;;;;1.20;1.00;;;9.40;98.00;;;;;;5039737;28;20481;-67
2022/02/18 00:30:25;;;;;;;3.83;1.87;;;9.40;98.00;;;;;;5043892;28;20776;-67
2022/02/18 00:32:52;;;;;;;1.20;1.03;;;9.40;98.00;;;;;;5043757;28;20505;-67
2022/02/18 00:35:21;;;;;;;1.20;1.10;;;9.40;98.00;;;;;;5034697;28;20493;-67
2022/02/18 00:37:49;;;;;;;1.73;1.20;;;9.40;98.00;;;;;;5043582;28;20457;-67
2022/02/18 00:40:16;;;;;;;1.20;1.00;;;9.40;98.00;;;;;;5040097;28;20861;-67
2022/02/18 00:42:45;;;;;;;1.20;1.00;;;9.40;98.00;;;;;;5027691;28;20461;-67
2022/02/18 00:45:14;;;;;;;1.20;1.00;;;9.30;98.00;;;;;;5038731;28;20487;-67
2022/02/18 00:47:41;;;;;;;1.20;0.90;;;9.30;98.00;;;;;;5036896;28;20832;-67
2022/02/18 00:50:08;;;;;;;1.20;1.00;;;9.30;98.00;;;;;;5030025;28;20524;-67
2022/02/18 00:52:36;;;;;;;1.20;1.00;;;9.30;98.00;;;;;;5039955;28;20452;-67
2022/02/18 00:55:03;;;;;;;1.30;1.13;;;9.40;98.00;;;;;;5040650;28;20488;-67
2022/02/18 00:57:30;;;;;;;1.20;0.90;;;9.50;98.00;;;;;;5042892;28;21034;-67
2022/02/18 00:59:57;;;;;;;1.20;0.90;;;9.50;98.00;;;;;;5040801;28;21032;-67
2022/02/18 01:02:28;;;;;;;1.30;1.10;;;9.50;98.00;;;;;;5033432;28;20881;-67
2022/02/18 01:04:56;;;;;;;1.20;0.90;;;9.50;98.00;;;;;;5035105;28;20523;-67
2022/02/18 01:07:25;;;;;;;1.83;1.20;;;9.50;98.00;;;;;;5043170;28;20504;-67
2022/02/18 01:09:53;;;;;;;1.20;1.00;;;9.50;98.00;;;;;;5039719;28;21017;-67
2022/02/18 01:12:20;;;;;;;3.27;1.30;;;9.50;98.00;;;;;;5042164;28;20457;-67
2022/02/18 01:14:48;;;;;;;1.20;1.00;;;9.50;98.00;;;;;;5046865;28;20463;-67
2022/02/18 01:17:16;;;;;;;1.20;0.90;;;9.60;98.00;;;;;;5040307;28;20821;-67
2022/02/18 01:19:44;;;;;;;1.20;1.00;;;9.50;98.00;;;;;;5033120;28;20460;-67
2022/02/18 01:22:12;;;;;;;1.70;1.27;;;9.50;98.00;;;;;;5040678;28;20496;-67
2022/02/18 01:24:39;;;;;;;1.20;1.00;;;9.50;98.00;;;;;;5042168;28;20782;-67
2022/02/18 01:27:12;;;;;;;1.20;1.00;;;9.50;98.00;;;;;;5043042;28;20798;-67
2022/02/18 01:29:40;;;;;;;1.60;1.27;;;9.50;98.00;;;;;;5037366;28;20537;-67
2022/02/18 01:32:08;;;;;;;1.20;0.97;;;9.50;98.00;;;;;;5039713;28;20931;-67
2022/02/18 01:34:36;;;;;;;1.20;1.00;;;9.50;98.00;;;;;;5028600;28;20956;-67
2022/02/18 01:37:05;;;;;;;1.20;1.00;;;9.60;98.00;;;;;;5036732;28;20460;-67
2022/02/18 01:39:32;;;;;;;1.40;1.20;;;9.60;98.00;;;;;;5038999;28;20833;-67
2022/02/18 01:41:59;;;;;;;2.60;1.93;;;9.60;98.00;;;;;;5041251;28;20529;-67
2022/02/18 01:44:34;;;;;;;1.20;0.90;;;9.60;98.00;;;;;;5033850;28;20496;-67
2022/02/18 01:47:02;;;;;;;4.10;1.23;;;9.60;98.00;;;;;;5036387;28;20462;-67
2022/02/18 01:49:29;;;;;;;1.20;1.00;;;9.60;98.00;;;;;;5036727;28;20526;-67
2022/02/18 01:51:56;;;;;;;1.60;1.33;;;9.60;98.00;;;;;;5039570;28;20847;-67
2022/02/18 01:54:25;;;;;;;1.30;1.10;;;9.60;98.00;;;;;;5042694;28;20496;-67
2022/02/18 01:56:52;;;;;;;1.33;1.10;;;9.70;98.00;;;;;;5036668;28;20904;-67
2022/02/18 01:59:19;;;;;;;3.00;1.93;;;9.60;98.00;;;;;;5037333;28;20501;-67
2022/02/18 02:01:47;;;;;;;1.30;1.20;;;9.70;98.00;;;;;;5033622;28;20488;-67
2022/02/18 02:04:14;;;;;;;1.47;1.07;;;9.70;98.00;;;;;;5026258;28;20873;-67
2022/02/18 02:06:41;;;;;;;1.20;1.00;;;9.60;98.00;;;;;;5042423;28;20468;-67
2022/02/18 02:09:08;;;;;;;2.70;1.40;;;9.60;98.00;;;;;;5032438;28;20494;-67
2022/02/18 02:11:37;;;;;;;1.20;1.00;;;9.70;98.00;;;;;;5038182;28;20464;-67
2022/02/18 02:14:07;;;;;;;1.20;1.00;;;9.60;98.00;;;;;;5044209;28;20516;-67
2022/02/18 02:16:34;;;;;;;1.20;0.97;;;9.60;98.00;;;;;;5036439;28;20467;-67
2022/02/18 02:19:01;;;;;;;1.20;1.00;;;9.60;98.00;;;;;;5034728;28;20554;-67
2022/02/18 02:21:28;;;;;;;1.20;1.00;;;9.70;98.00;;;;;;5042544;28;20461;-67
2022/02/18 02:23:57;;;;;;;1.93;1.53;;;9.70;98.00;;;;;;5044614;28;20563;-67
2022/02/18 02:26:24;;;;;;;1.20;0.93;;;9.60;98.00;;;;;;5037129;28;20538;-67
2022/02/18 02:28:51;;;;;;;3.20;1.20;;;9.60;98.00;;;;;;5034293;28;20522;-67
2022/02/18 02:31:22;;;;;;;1.20;1.10;;;9.60;98.00;;;;;;5039521;28;20497;-67
2022/02/18 02:33:50;;;;;;;1.20;1.00;;;9.60;98.00;;;;;;5038239;28;20454;-67
2022/02/18 02:36:21;;;;;;;1.20;1.00;;;9.70;98.00;;;;;;5043184;28;20486;-67
2022/02/18 02:38:48;;;;;;;1.20;0.90;;;9.70;98.00;;;;;;5042120;28;20489;-67
2022/02/18 02:41:17;;;;;;;1.23;1.07;;;9.70;98.00;;;;;;5040822;28;20860;-67
2022/02/18 02:43:44;;;;;;;4.03;1.53;;;9.70;98.00;;;;;;5036387;28;20590;-67
2022/02/18 02:46:11;;;;;;;1.20;1.00;;;9.70;98.00;;;;;;5036265;28;20593;-67
2022/02/18 02:48:38;;;;;;;1.20;1.00;;;9.70;98.00;;;;;;5038945;28;21114;-67
2022/02/18 02:51:05;;;;;;;1.20;1.00;;;9.60;98.00;;;;;;5041142;28;20965;-67
2022/02/18 02:53:33;;;;;;;1.20;1.00;;;9.60;98.00;;;;;;5043395;28;20451;-67
2022/02/18 02:56:00;;;;;;;1.20;1.00;;;9.60;98.00;;;;;;5042237;28;20493;-67
2022/02/18 02:58:28;;;;;;;1.97;1.70;;;9.60;98.00;;;;;;5036603;28;21005;-67
2022/02/18 03:00:56;;;;;;;2.70;1.33;;;9.60;98.00;;;;;;5034169;28;20482;-67
2022/02/18 03:03:23;;;;;;;1.20;1.20;;;9.50;98.00;;;;;;5041876;28;20459;-67
2022/02/18 03:05:49;;;;;;;1.30;1.10;;;9.50;98.00;;;;;;5041433;28;20823;-67
2022/02/18 03:08:16;;;;;;;1.20;0.90;;;9.50;98.00;;;;;;5044784;28;20948;-67
2022/02/18 03:11:14;;;;;;;1.20;1.20;;;9.60;98.00;;;;;;5035619;28;20530;-67
2022/02/18 03:13:33;;;;;;;1.30;1.30;;;9.60;98.00;;;;;;5035145;28;20443;-67
2022/02/18 03:16:00;;;;;;;1.20;1.10;;;9.60;98.00;;;;;;5042210;28;20545;-67
2022/02/18 03:18:27;;;;;;;1.20;1.00;;;9.60;98.00;;;;;;5045246;28;20489;-67
2022/02/18 03:20:55;;;;;;;1.20;1.00;;;9.60;98.00;;;;;;5039289;28;20496;-67
2022/02/18 03:23:22;;;;;;;1.20;1.00;;;9.60;98.00;;;;;;5043025;28;20605;-67
2022/02/18 03:25:49;;;;;;;1.20;1.00;;;9.60;98.00;;;;;;5041546;28;20488;-67
2022/02/18 03:28:16;;;;;;;1.73;1.10;;;9.70;98.00;;;;;;5035776;28;20482;-67
2022/02/18 03:30:46;;;;;;;1.20;1.20;;;9.60;98.00;;;;;;5044377;28;21040;-67
2022/02/18 03:33:13;;;;;;;1.20;1.00;;;9.60;98.00;;;;;;5039053;28;20977;-67
2022/02/18 03:35:40;;;;;;;1.20;1.00;;;9.50;98.00;;;;;;5039443;28;20484;-67
2022/02/18 03:38:09;;;;;;;1.40;1.20;;;9.60;98.00;;;;;;5041576;28;20503;-67
2022/02/18 03:40:36;;;;;;;1.20;1.00;;;9.60;98.00;;;;;;5035094;28;20498;-67
2022/02/18 03:43:05;;;;;;;1.20;0.90;;;9.60;98.00;;;;;;5028176;28;20489;-67
2022/02/18 03:45:32;;;;;;;1.30;1.10;;;9.50;98.00;;;;;;5045036;28;20470;-67
2022/02/18 03:48:00;;;;;;;1.93;1.50;;;9.50;98.00;;;;;;5046256;28;20546;-67
2022/02/18 03:50:27;;;;;;;1.30;1.20;;;9.50;98.00;;;;;;5036543;28;21006;-67
2022/02/18 03:52:57;;;;;;;1.20;1.10;;;9.50;98.00;;;;;;5037010;28;20505;-67
2022/02/18 03:55:24;;;;;;;1.20;1.00;;;9.40;98.00;;;;;;5036091;28;20565;-67
2022/02/18 03:57:51;;;;;;;3.10;1.40;;;9.40;98.00;;;;;;5036806;28;21001;-67
2022/02/18 04:00:19;;;;;;;1.20;1.10;;;9.50;98.00;;;;;;5044231;28;20452;-67
2022/02/18 04:02:46;;;;;;;2.60;1.93;;;9.50;98.00;;;;;;5041161;28;20494;-67
2022/02/18 04:05:14;;;;;;;2.23;1.63;;;9.50;98.00;;;;;;5040217;28;20934;-67
2022/02/18 04:07:41;;;;;;;1.20;0.90;;;9.50;98.00;;;;;;5022585;28;20461;-67
2022/02/18 04:10:09;;;;;;;1.30;1.30;;;9.40;98.00;;;;;;5040989;28;20489;-67
2022/02/18 04:12:38;;;;;;;1.20;1.10;;;9.50;98.00;;;;;;5043933;28;20553;-67
2022/02/18 04:15:06;;;;;;;1.60;1.40;;;9.50;98.00;;;;;;5038421;28;20467;-67
2022/02/18 04:17:33;;;;;;;1.20;1.00;;;9.50;98.00;;;;;;5039808;28;20527;-67
2022/02/18 04:20:00;;;;;;;1.20;0.90;;;9.50;98.00;;;;;;5038472;28;20536;-67
2022/02/18 04:22:29;;;;;;;1.30;1.20;;;9.40;98.00;;;;;;5035377;28;20955;-67
2022/02/18 04:24:56;;;;;;;1.20;0.93;;;9.40;98.00;;;;;;5033260;28;20508;-67
2022/02/18 04:27:23;;;;;;;11.40;1.20;;;9.40;98.00;;;;;;5039973;28;20494;-67
2022/02/18 04:29:50;;;;;;;1.20;1.00;;;9.40;98.00;;;;;;5042374;28;20524;-67
2022/02/18 04:32:17;;;;;;;1.20;1.00;;;9.40;98.00;;;;;;5034703;28;20547;-67
2022/02/18 04:34:44;;;;;;;1.30;1.27;;;9.40;98.00;;;;;;5034160;28;20459;-67
2022/02/18 04:37:11;;;;;;;1.40;1.23;;;9.50;98.00;;;;;;5037373;28;20534;-67
2022/02/18 04:39:40;;;;;;;1.40;1.20;;;9.40;98.00;;;;;;5034313;28;20485;-67
2022/02/18 04:42:07;;;;;;;1.70;1.33;;;9.40;98.00;;;;;;5035458;28;20500;-67
2022/02/18 04:44:34;;;;;;;1.40;1.20;;;9.40;98.00;;;;;;5039572;28;20465;-67
2022/02/18 04:47:01;;;;;;;1.30;1.17;;;9.40;98.00;;;;;;5041992;28;20502;-67
2022/02/18 04:49:29;;;;;;;1.20;1.00;;;9.40;98.00;;;;;;5032690;28;20494;-67
2022/02/18 04:51:56;;;;;;;1.20;0.90;;;9.40;98.00;;;;;;5034630;28;20470;-67
2022/02/18 04:54:23;;;;;;;1.20;1.00;;;9.40;98.00;;;;;;5041194;28;20470;-67
2022/02/18 04:56:52;;;;;;;1.20;1.00;;;9.40;98.00;;;;;;5039217;28;20540;-67
2022/02/18 04:59:20;;;;;;;1.20;0.90;;;9.40;98.00;;;;;;5029093;28;20537;-67
2022/02/18 05:01:47;;;;;;;1.20;1.00;;;9.50;98.00;;;;;;5039736;28;20925;-67
2022/02/18 05:04:14;;;;;;;1.20;1.00;;;9.50;98.00;;;;;;5036365;28;21201;-67
2022/02/18 05:06:41;;;;;;;1.20;0.90;;;9.50;98.00;;;;;;5031042;28;20513;-67
2022/02/18 05:09:11;;;;;;;1.20;1.17;;;9.60;98.00;;;;;;5041305;28;20915;-67
2022/02/18 05:11:38;;;;;;;1.20;1.00;;;9.60;98.00;;;;;;5040402;28;20547;-67
2022/02/18 05:14:06;;;;;;;1.20;1.00;;;9.70;98.00;;;;;;5037486;28;20512;-67
2022/02/18 05:16:34;;;;;;;1.30;1.20;;;9.70;98.00;;;;;;5037069;28;20507;-67
2022/02/18 05:19:04;;;;;;;1.20;1.10;;;9.70;98.00;;;;;;5037686;28;20486;-67
2022/02/18 05:21:31;;;;;;;1.63;1.10;;;9.80;98.00;;;;;;5033059;28;20458;-67
2022/02/18 05:23:58;;;;;;;1.20;1.00;;;9.80;98.00;;;;;;5040010;28;20548;-67
2022/02/18 05:26:25;;;;;;;1.20;0.90;;;9.90;98.00;;;;;;5042261;28;20461;-67
2022/02/18 05:28:52;;;;;;;1.20;1.00;;;9.90;98.00;;;;;;5039155;28;20500;-67
2022/02/18 05:31:21;;;;;;;1.20;1.00;;;9.90;98.00;;;;;;5042817;28;20521;-67
2022/02/18 05:33:49;;;;;;;1.30;1.13;;;9.90;98.00;;;;;;5029695;28;20551;-67
2022/02/18 05:36:16;;;;;;;1.20;1.00;;;9.90;98.00;;;;;;5045012;28;20524;-67
2022/02/18 05:38:43;;;;;;;1.20;1.00;;;9.90;98.00;;;;;;5042106;28;20523;-67
2022/02/18 05:41:11;;;;;;;1.77;1.20;;;10.00;98.00;;;;;;5038344;28;20497;-67
2022/02/18 05:43:38;;;;;;;1.20;1.00;;;10.00;98.00;;;;;;5039464;28;20549;-67
2022/02/18 05:46:05;;;;;;;1.63;1.63;;;10.00;98.00;;;;;;5036052;28;20525;-67
2022/02/18 05:48:34;;;;;;;5.37;1.30;;;10.00;98.00;;;;;;5040096;28;20482;-67
2022/02/18 05:51:01;;;;;;;1.20;0.93;;;10.00;98.00;;;;;;5045709;28;20914;-67
2022/02/18 05:53:29;;;;;;;1.20;1.00;;;10.10;98.00;;;;;;5034166;28;20466;-67
2022/02/18 05:55:56;;;;;;;1.20;0.97;;;10.10;98.00;;;;;;5039814;28;20525;-67
2022/02/18 05:58:23;;;;;;;1.20;1.00;;;10.10;98.00;;;;;;5043482;28;20450;-67
2022/02/18 06:00:50;;;;;;;1.20;1.00;;;10.10;98.00;;;;;;5015216;28;20535;-67
2022/02/18 06:03:17;;;;;;;1.93;1.30;;;10.10;98.00;;;;;;5035645;28;20470;-67
2022/02/18 06:05:47;;;;;;;1.40;1.20;;;10.10;98.00;;;;;;5042951;28;20536;-67
2022/02/18 06:08:14;;;;;;;1.20;0.90;;;10.20;98.00;;;;;;5046426;28;20522;-67
2022/02/18 06:10:42;;;;;;;2.97;1.10;;;10.20;98.00;;;;;;5041049;28;20521;-67
2022/02/18 06:13:10;;;;;;;1.30;1.10;;;10.20;98.00;;;;;;5035062;28;20517;-67
2022/02/18 06:15:37;;;;;;;1.20;1.00;;;10.20;98.00;;;;;;5036356;28;20503;-67
2022/02/18 06:18:04;;;;;;;1.43;1.07;;;10.20;98.00;;;;;;5041738;28;20505;-67
2022/02/18 06:20:31;;;;;;;1.20;1.00;;;10.20;98.00;;;;;;5045002;28;20454;-67
2022/02/18 06:23:00;;;;;;;1.20;1.00;;;10.10;98.00;;;;;;5041381;28;20941;-67
2022/02/18 06:25:27;;;;;;;1.20;1.00;;;10.10;98.00;;;;;;5041824;28;20517;-67
2022/02/18 06:28:05;;;;;;;1.20;1.00;;;10.10;98.00;;;;;;5043988;28;20517;-67
2022/02/18 06:30:32;;;;;;;1.20;1.00;;;10.10;98.00;;;;;;5026766;28;20574;-67
2022/02/18 06:32:59;;;;;;;1.20;0.97;;;10.10;98.00;;;;;;5045015;28;20462;-67
2022/02/18 06:35:26;;;;;;;1.20;1.00;;;10.10;98.00;;;;;;5043389;28;20468;-67
2022/02/18 06:37:54;;;;;;;1.20;1.00;;;10.10;98.00;;;;;;5038269;28;20550;-67
2022/02/18 06:40:23;;;;;;;1.20;1.00;;;10.10;98.00;;;;;;5034359;28;20462;-67
2022/02/18 06:42:50;;;;;;;1.20;1.00;;;10.00;98.00;;;;;;5042457;28;20888;-67
2022/02/18 06:45:18;;;;;;;4.23;1.37;;;10.00;98.00;;;;;;5042300;28;20494;-67
2022/02/18 06:47:47;;;;;;;1.20;1.00;;;10.00;98.00;;;;;;5048967;28;20458;-67
2022/02/18 06:50:16;;;;;;;3.00;1.30;;;10.00;98.00;;;;;;5042315;28;20482;-68
2022/02/18 06:52:45;;;;;;;1.20;1.00;;;9.90;98.00;;;;;;5040373;28;20491;-67
2022/02/18 06:55:12;;;;;;;1.20;1.00;;;10.00;98.00;;;;;;5044531;28;20513;-67
2022/02/18 06:57:41;;;;;;;1.20;1.00;;;10.00;98.00;;;;;;5034633;28;20556;-67
2022/02/18 07:00:12;;;;;;;1.43;1.30;;;10.00;98.00;;;;;;5032153;28;20975;-68
2022/02/18 07:02:39;;;;;;;1.20;1.00;;;9.90;98.00;;;;;;5037844;28;20856;-67
2022/02/18 07:05:08;;;;;;;1.20;1.00;;;9.90;98.00;;;;;;5041204;28;20483;-68
2022/02/18 07:07:36;;;;;;;1.20;1.10;;;10.00;98.00;;;;;;5040267;28;20491;-68
2022/02/18 07:10:04;;;;;;;2.03;1.63;;;10.00;98.00;;;;;;5039117;28;20507;-67
2022/02/18 07:12:31;;;;;;;1.20;1.00;;;10.00;98.00;;;;;;5032540;28;20473;-67
2022/02/18 07:15:00;;;;;;;1.20;0.90;;;10.00;98.00;;;;;;5044316;28;20536;-68
2022/02/18 07:17:29;;;;;;;1.20;0.90;;;10.00;98.00;;;;;;5041904;28;20453;-67
2022/02/18 07:19:57;;;;;;;1.20;1.00;;;10.10;98.00;;;;;;5037604;28;20562;-67
2022/02/18 07:22:25;;;;;;;1.20;1.00;;;10.20;98.00;;;;;;5042670;28;20462;-67
2022/02/18 07:24:53;;;;;;;1.20;1.07;;;10.20;98.00;;;;;;5037844;28;20551;-67
2022/02/18 07:27:20;;;;;;;1.20;1.00;;;10.20;98.00;;;;;;5035229;28;20509;-67
2022/02/18 07:29:48;;;;;;;1.20;1.00;;;10.10;98.00;;;;;;5041367;28;20545;-67
2022/02/18 07:32:16;;;;;;;2.17;1.63;;;10.10;98.00;;;;;;5045681;28;20605;-67
2022/02/18 07:34:43;;;;;;;2.33;1.47;;;10.10;98.00;;;;;;5038928;28;20907;-67
2022/02/18 07:37:10;;;;;;;1.20;1.10;;;10.10;98.00;;;;;;5043316;28;20560;-67
2022/02/18 07:39:41;;;;;;;1.20;1.20;;;10.10;98.00;;;;;;5035346;28;20456;-67
2022/02/18 07:42:09;;;;;;;1.30;1.20;;;10.20;98.00;;;;;;5041637;28;20453;-67
2022/02/18 07:44:36;;;;;;;1.20;1.00;;;10.20;98.00;;;;;;5044417;28;20484;-67
2022/02/18 07:47:04;;;;;;;1.63;1.43;;;10.30;98.00;;;;;;5042502;28;20605;-67
2022/02/18 07:49:33;;;;;;;1.40;1.03;;;10.40;98.00;;;;;;5033753;28;20988;-67
2022/02/18 07:52:02;;;;;;;1.20;1.00;;;10.60;98.00;;;;;;5040077;28;20592;-67
2022/02/18 07:54:29;;;;;;;1.60;1.20;;;10.70;98.00;;;;;;5030946;28;20548;-67
2022/02/18 07:56:56;;;;;;;1.20;1.00;;;10.70;98.00;;;;;;5043691;28;20469;-67
2022/02/18 07:59:23;;;;;;;1.20;1.00;;;10.70;98.00;;;;;;5040656;28;20485;-67
2022/02/18 08:01:51;;;;;;;1.90;1.83;;;10.70;98.00;;;;;;5038008;28;20972;-67
2022/02/18 08:04:18;;;;;;;1.73;1.50;;;10.70;98.00;;;;;;5043159;28;20839;-67
2022/02/18 08:06:46;;;;;;;1.70;1.23;;;10.60;98.00;;;;;;5029848;28;20987;-67
2022/02/18 08:09:14;;;;;;;1.50;1.50;;;10.70;98.00;;;;;;5039478;28;20463;-67
2022/02/18 08:11:41;;;;;;;2.17;1.30;;;10.60;98.00;;;;;;5040298;28;20926;-67
2022/02/18 08:14:08;;;;;;;1.20;0.97;;;10.60;98.00;;;;;;5044839;28;20487;-67
2022/02/18 08:16:35;;;;;;;2.03;1.87;;;10.60;98.00;;;;;;5038019;28;20481;-67
2022/02/18 08:19:02;;;;;;;3.13;1.40;;;10.60;98.00;;;;;;5035725;28;20859;-67
2022/02/18 08:21:30;;;;;;;1.50;1.30;;;10.70;98.00;;;;;;5039175;28;20486;-67
2022/02/18 08:23:58;;;;;;;1.40;1.20;;;10.70;98.00;;;;;;5040712;28;20520;-67
2022/02/18 08:26:25;;;;;;;1.20;1.10;;;10.70;98.00;;;;;;5042513;28;20548;-67
2022/02/18 08:28:52;;;;;;;1.43;1.33;;;10.70;98.00;;;;;;5032050;28;20545;-67
2022/02/18 08:31:19;;;;;;;4.60;1.60;;;10.80;98.00;;;;;;5040574;28;20897;-67
2022/02/18 08:33:46;;;;;;;1.30;1.20;;;10.90;98.00;;;;;;5037313;28;20968;-67
2022/02/18 08:36:13;;;;;;;1.43;1.30;;;10.90;98.00;;;;;;5029786;28;20548;-67
2022/02/18 08:38:41;;;;;;;2.37;1.80;;;10.90;98.00;;;;;;5043497;28;20462;-67
2022/02/18 08:41:10;;;;;;;1.60;1.30;;;10.90;98.00;;;;;;5039577;28;20465;-67
2022/02/18 08:43:37;;;;;;;1.30;1.30;;;10.90;98.00;;;;;;5034489;28;20469;-67
2022/02/18 08:46:04;;;;;;;1.57;1.17;;;10.90;98.00;;;;;;5041163;28;20501;-67
2022/02/18 08:48:31;;;;;;;4.43;2.80;;;11.00;98.00;;;;;;5035225;28;20966;-67
2022/02/18 08:50:59;;;;;;;2.90;1.60;;;11.10;98.00;;;;;;5033010;28;20484;-67
2022/02/18 08:53:27;;;;;;;1.60;1.40;;;11.00;98.00;;;;;;5039878;28;20461;-67
2022/02/18 08:55:58;;;;;;;2.33;1.50;;;11.10;98.00;;;;;;5034666;28;20741;-71
2022/02/18 08:58:27;;;;;;;1.80;1.37;;;11.10;98.00;;;;;;5031153;28;20457;-70
2022/02/18 09:00:54;;;;;;;1.30;1.10;;;11.30;98.00;;;;;;5039519;28;20515;-69
2022/02/18 09:03:22;;;;;;;1.30;1.10;;;11.30;98.00;;;;;;5030797;28;20522;-69
2022/02/18 09:05:49;;;;;;;1.20;1.00;;;11.40;98.00;;;;;;5038396;28;20488;-68
2022/02/18 09:08:18;;;;;;;4.13;1.63;;;11.50;98.00;;;;;;5039773;28;20473;-68
2022/02/18 09:10:49;;;;;;;1.60;1.27;;;11.40;98.00;;;;;;5035047;28;20493;-68
2022/02/18 09:13:16;;;;;;;1.20;1.00;;;11.50;98.00;;;;;;5031894;28;20461;-68
2022/02/18 09:15:44;;;;;;;1.30;1.20;;;11.60;98.00;;;;;;5038475;28;20515;-68
2022/02/18 09:18:15;;;;;;;1.20;1.00;;;11.70;98.00;;;;;;5034321;28;20492;-68
2022/02/18 09:20:44;;;;;;;1.20;1.10;;;11.80;98.00;;;;;;5036788;28;20499;-68
2022/02/18 09:23:11;;;;;;;1.20;0.97;;;12.00;98.00;;;;;;5038218;28;20466;-69
2022/02/18 09:25:40;;;;;;;1.63;1.27;;;12.20;98.00;;;;;;5051256;28;20561;-68
2022/02/18 09:28:07;;;;;;;1.20;1.00;;;12.30;98.00;;;;;;5040802;28;20450;-68
2022/02/18 09:30:37;;;;;;;1.20;1.10;;;12.40;98.00;;;;;;5036459;28;20535;-68
2022/02/18 09:33:05;;;;;;;1.20;1.00;;;12.50;98.00;;;;;;5037330;28;20489;-68
2022/02/18 09:35:32;;;;;;;1.20;1.00;;;12.60;98.00;;;;;;5047490;28;20553;-68
2022/02/18 09:38:00;;;;;;;1.20;0.90;;;12.60;98.00;;;;;;5041373;28;20531;-68
2022/02/18 09:40:27;;;;;;;1.20;1.00;;;12.70;98.00;;;;;;5036128;28;21118;-68
2022/02/18 09:42:55;;;;;;;1.20;1.00;;;12.80;98.00;;;;;;5042943;28;20469;-68
2022/02/18 09:45:22;;;;;;;1.20;1.00;;;12.80;98.00;;;;;;5047868;28;20512;-67
2022/02/18 09:47:52;;;;;;;1.20;1.00;;;12.90;98.00;;;;;;5050386;28;20859;-71
2022/02/18 09:50:21;;;;;;;1.20;1.00;;;13.00;98.00;;;;;;5038371;28;20920;-69
2022/02/18 09:52:48;;;;;;;1.20;1.00;;;13.10;98.00;;;;;;5046826;28;20581;-70
2022/02/18 09:55:15;;;;;;;1.20;1.10;;;13.20;98.00;;;;;;5033339;28;20501;-69
2022/02/18 09:57:45;;;;;;;1.20;1.00;;;13.20;98.00;;;;;;5042192;28;20456;-70
2022/02/18 10:00:13;;;;;;;1.20;1.00;;;13.40;98.00;;;;;;5034385;28;20515;-67
2022/02/18 10:02:41;;;;;;;1.20;1.00;;;13.40;98.00;;;;;;5034847;28;20463;-68
2022/02/18 10:05:08;;;;;;;2.80;1.50;;;13.40;98.00;;;;;;5044862;28;20962;-68
2022/02/18 10:08:06;;;;;;;1.20;1.00;;;13.50;98.00;;;;;;5049883;28;20481;-67
2022/02/18 10:10:34;;;;;;;1.20;1.00;;;13.60;98.00;;;;;;5028073;28;20472;-68
2022/02/18 10:13:01;;;;;;;1.60;1.13;;;13.60;98.00;;;;;;5041673;28;21026;-68
2022/02/18 10:15:28;;;;;;;1.30;1.10;;;13.70;98.00;;;;;;5045634;28;20466;-68
2022/02/18 10:18:00;;;;;;;1.20;1.00;;;13.70;98.00;;;;;;5047685;28;20487;-68
2022/02/18 10:20:29;;;;;;;1.20;1.00;;;13.80;98.00;;;;;;5046237;28;20486;-67
2022/02/18 10:23:02;;;;;;;1.20;1.00;;;13.80;98.00;;;;;;5035597;28;21129;-68
2022/02/18 10:25:31;;;;;;;2.50;1.60;;;13.90;98.00;;;;;;5032843;28;20459;-67
2022/02/18 10:27:58;;;;;;;1.63;1.13;;;13.90;98.00;;;;;;5044877;28;20455;-66
2022/02/18 10:30:28;;;;;;;1.20;1.10;;;14.00;98.00;;;;;;5033469;28;20463;-66
2022/02/18 10:32:56;;;;;;;1.20;1.00;;;14.20;98.00;;;;;;5039697;28;20546;-67
2022/02/18 10:35:31;;;;;;;1.20;1.00;;;14.50;98.00;;;;;;5045449;28;20833;-67
2022/02/18 10:38:00;;;;;;;1.20;1.00;;;14.80;98.00;;;;;;5044738;28;20498;-66
2022/02/18 10:40:28;;;;;;;1.20;1.00;;;15.10;98.00;;;;;;5043464;28;20463;-66
2022/02/18 10:42:56;;;;;;;1.30;1.20;;;15.40;98.00;;;;;;5029630;28;20505;-67
2022/02/18 10:45:26;;;;;;;1.70;1.20;;;15.60;98.00;;;;;;5034554;28;20456;-66
2022/02/18 10:48:07;;;;;;;1.20;1.10;;;15.70;98.00;;;;;;5044099;28;21008;-67
2022/02/18 10:50:35;;;;;;;1.20;1.00;;;15.70;98.00;;;;;;5044985;28;21056;-66
2022/02/18 10:53:17;;;;;;;1.33;1.20;;;15.60;98.00;;;;;;5030185;28;20521;-67
2022/02/18 10:55:55;;;;;;;1.20;1.00;;;15.60;98.00;;;;;;5041033;28;20472;-68
2022/02/18 10:58:24;;;;;;;1.20;1.10;;;15.50;98.00;;;;;;5034805;28;20494;-67
2022/02/18 11:01:11;;;;;;;2.23;1.40;;;15.30;98.00;;;;;;5049197;28;20466;-66
2022/02/18 11:03:40;;;;;;;1.20;1.10;;;15.20;98.00;;;;;;5029061;28;20495;-66
2022/02/18 11:06:18;;;;;;;1.20;1.10;;;15.20;98.00;;;;;;5033777;28;20462;-67
2022/02/18 11:08:54;;;;;;;1.97;1.50;;;15.10;98.00;;;;;;5031142;28;20456;-66
2022/02/18 11:11:24;;;;;;;1.20;1.10;;;15.20;98.00;;;;;;5038006;28;20901;-67
2022/02/18 11:13:53;;;;;;;2.07;1.10;;;15.30;98.00;;;;;;5031046;28;20467;-67
2022/02/18 11:16:21;;;;;;;1.20;1.00;;;15.40;98.00;;;;;;5037242;28;20489;-67
2022/02/18 11:18:49;;;;;;;1.20;1.03;;;15.50;98.00;;;;;;5034654;28;20545;-67
2022/02/18 11:21:18;;;;;;;1.20;1.00;;;15.50;98.00;;;;;;5029920;28;20893;-67
2022/02/18 11:23:48;;;;;;;1.50;1.40;;;15.60;98.00;;;;;;5031273;28;20958;-67
2022/02/18 11:26:19;;;;;;;2.17;1.20;;;15.60;98.00;;;;;;5042278;28;20463;-66
2022/02/18 11:28:47;;;;;;;1.20;1.00;;;15.80;98.00;;;;;;5046667;28;20456;-67
2022/02/18 11:31:22;;;;;;;1.20;1.10;;;15.90;98.00;;;;;;5032486;28;20826;-66
2022/02/18 11:34:24;;;;;;;1.30;1.10;;;16.30;98.00;;;;;;5039573;28;20547;-67
2022/02/18 11:37:20;;;;;;;1.30;1.10;;;16.80;98.00;;;;;;5036608;28;20463;-66
2022/02/18 11:40:23;;;;;;;1.20;1.10;;;17.20;98.00;;;;;;5024010;28;20545;-66
2022/02/18 11:43:00;;;;;;;1.20;1.00;;;17.30;98.00;;;;;;5041329;28;20460;-67
2022/02/18 11:45:27;;;;;;;1.20;1.00;;;17.10;98.00;;;;;;5026303;28;21050;-66
2022/02/18 11:47:54;;;;;;;1.30;1.10;;;17.00;98.00;;;;;;5033748;28;20525;-67
2022/02/18 11:50:29;;;;;;;1.20;1.10;;;17.00;98.00;;;;;;5038886;28;21203;-67
2022/02/18 11:52:56;;;;;;;1.43;1.10;;;17.10;98.00;;;;;;5038138;28;20559;-67
2022/02/18 11:55:30;;;;;;;1.20;1.10;;;17.30;98.00;;;;;;5039414;28;20879;-68
2022/02/18 11:58:07;;;;;;;1.20;1.00;;;17.70;97.60;;;;;;5039859;28;20500;-67
2022/02/18 12:00:42;;;;;;;1.20;1.00;;;17.70;97.10;;;;;;5032446;28;20839;-67
2022/02/18 12:03:16;;;;;;;1.20;1.00;;;17.50;96.60;;;;;;5029676;28;20956;-67
2022/02/18 12:06:12;;;;;;;1.20;1.00;;;17.40;95.90;;;;;;5028007;28;20885;-66
2022/02/18 12:08:40;;;;;;;1.70;1.10;;;17.20;96.70;;;;;;5017717;28;20463;-67
2022/02/18 12:11:12;;;;;;;1.20;1.00;;;17.10;96.10;;;;;;5031363;28;20490;-67
2022/02/18 12:13:57;;;;;;;1.53;1.10;;;17.00;96.30;;;;;;5036572;28;20512;-67
2022/02/18 12:16:26;;;;;;;1.30;1.20;;;17.00;96.50;;;;;;5036101;28;20464;-67
2022/02/18 12:19:07;;;;;;;1.20;1.00;;;16.90;96.50;;;;;;5030107;28;20486;-66
2022/02/18 12:21:57;;;;;;;1.20;1.10;;;16.80;96.80;;;;;;5027878;28;20850;-66
2022/02/18 12:24:47;;;;;;;1.20;1.03;;;16.80;97.10;;;;;;5027164;28;20499;-66
2022/02/18 12:27:32;;;;;;;1.20;1.00;;;16.80;98.00;;;;;;5036990;28;20880;-67
2022/02/18 12:30:20;;;;;;;1.20;1.00;;;16.80;97.50;;;;;;5030152;28;20497;-66
2022/02/18 12:32:47;;;;;;;1.20;1.03;;;16.80;97.30;;;;;;5035237;28;20481;-67
2022/02/18 12:35:17;;;;;;;1.20;1.00;;;16.70;97.80;;;;;;5046077;28;20495;-67
2022/02/18 12:37:44;;;;;;;1.30;1.20;;;16.70;98.00;;;;;;5027293;28;20512;-67
2022/02/18 12:40:15;;;;;;;1.20;1.10;;;16.70;97.70;;;;;;5041943;28;20493;-67
2022/02/18 12:42:43;;;;;;;2.57;1.27;;;16.70;97.70;;;;;;5034124;28;20548;-67
2022/02/18 12:45:13;;;;;;;1.30;1.10;;;16.70;98.00;;;;;;5030378;28;20453;-66
2022/02/18 12:47:44;;;;;;;1.30;1.20;;;16.70;98.00;;;;;;5028475;28;20587;-67
2022/02/18 12:50:13;;;;;;;1.20;1.00;;;16.70;98.00;;;;;;5029374;28;20542;-67
2022/02/18 12:52:46;;;;;;;1.20;1.00;;;16.70;98.00;;;;;;5031665;28;21129;-65
2022/02/18 12:55:17;;;;;;;2.70;1.63;;;16.70;98.00;;;;;;5045787;28;20453;-66
2022/02/18 12:57:45;;;;;;;1.20;1.00;;;16.70;98.00;;;;;;5046493;28;20472;-65
2022/02/18 13:00:16;;;;;;;2.00;1.60;;;16.80;98.00;;;;;;5037242;28;20457;-66